sensor_id;sensor_type;location;lat;lon;timestamp;temperature;humidity
11454;DHT22;5783;55.174;61.310;2022-12-11T00:01:25;13.80;48.30
11454;DHT22;5783;55.174;61.310;2022-12-11T00:03:54;13.70;48.30
11454;DHT22;5783;55.174;61.310;2022-12-11T00:08:55;13.60;48.50
11454;DHT22;5783;55.174;61.310;2022-12-11T00:11:24;13.60;48.20
11454;DHT22;5783;55.174;61.310;2022-12-11T00:13:53;13.60;48.20
11454;DHT22;5783;55.174;61.310;2022-12-11T00:16:22;13.60;48.20
11454;DHT22;5783;55.174;61.310;2022-12-11T00:18:51;13.60;48.40
11454;DHT22;5783;55.174;61.310;2022-12-11T00:21:20;13.60;48.40
11454;DHT22;5783;55.174;61.310;2022-12-11T00:23:49;13.60;48.40
11454;DHT22;5783;55.174;61.310;2022-12-11T00:26:18;13.60;48.40
11454;DHT22;5783;55.174;61.310;2022-12-11T00:28:52;13.60;48.10
11454;DHT22;5783;55.174;61.310;2022-12-11T00:31:20;13.60;48.00
11454;DHT22;5783;55.174;61.310;2022-12-11T00:33:50;13.60;48.40
11454;DHT22;5783;55.174;61.310;2022-12-11T00:36:22;13.60;48.20
11454;DHT22;5783;55.174;61.310;2022-12-11T00:38:52;13.60;48.40
11454;DHT22;5783;55.174;61.310;2022-12-11T00:41:23;13.60;48.00
11454;DHT22;5783;55.174;61.310;2022-12-11T00:43:53;13.60;47.60
11454;DHT22;5783;55.174;61.310;2022-12-11T00:46:22;13.50;47.50
11454;DHT22;5783;55.174;61.310;2022-12-11T00:48:51;13.60;47.50
11454;DHT22;5783;55.174;61.310;2022-12-11T00:51:20;13.60;47.90
11454;DHT22;5783;55.174;61.310;2022-12-11T00:53:49;13.60;47.60
11454;DHT22;5783;55.174;61.310;2022-12-11T00:56:20;13.60;47.50
11454;DHT22;5783;55.174;61.310;2022-12-11T00:58:50;13.60;47.50
11454;DHT22;5783;55.174;61.310;2022-12-11T01:01:21;13.60;47.50
11454;DHT22;5783;55.174;61.310;2022-12-11T01:03:52;13.60;47.40
11454;DHT22;5783;55.174;61.310;2022-12-11T01:06:24;13.70;47.40
11454;DHT22;5783;55.174;61.310;2022-12-11T01:08:54;13.70;47.20
11454;DHT22;5783;55.174;61.310;2022-12-11T01:11:43;13.80;47.00
11454;DHT22;5783;55.174;61.310;2022-12-11T01:14:12;13.80;47.10
11454;DHT22;5783;55.174;61.310;2022-12-11T01:16:41;13.80;46.90
11454;DHT22;5783;55.174;61.310;2022-12-11T01:19:11;13.90;46.70
11454;DHT22;5783;55.174;61.310;2022-12-11T01:21:40;13.80;46.80
11454;DHT22;5783;55.174;61.310;2022-12-11T01:24:09;13.80;47.10
11454;DHT22;5783;55.174;61.310;2022-12-11T01:26:38;13.80;47.10
11454;DHT22;5783;55.174;61.310;2022-12-11T01:29:07;13.80;47.00
11454;DHT22;5783;55.174;61.310;2022-12-11T01:31:36;13.90;47.10
11454;DHT22;5783;55.174;61.310;2022-12-11T01:34:06;13.90;46.80
11454;DHT22;5783;55.174;61.310;2022-12-11T01:36:35;13.90;46.80
11454;DHT22;5783;55.174;61.310;2022-12-11T01:39:04;13.90;46.70
11454;DHT22;5783;55.174;61.310;2022-12-11T01:41:33;13.80;46.60
11454;DHT22;5783;55.174;61.310;2022-12-11T01:46:52;13.80;46.80
11454;DHT22;5783;55.174;61.310;2022-12-11T01:49:24;13.70;47.00
11454;DHT22;5783;55.174;61.310;2022-12-11T01:52:15;13.70;47.00
11454;DHT22;5783;55.174;61.310;2022-12-11T01:55:04;13.70;46.90
11454;DHT22;5783;55.174;61.310;2022-12-11T01:57:36;13.70;47.00
11454;DHT22;5783;55.174;61.310;2022-12-11T02:00:07;13.70;46.90
11454;DHT22;5783;55.174;61.310;2022-12-11T02:02:36;13.70;46.90
11454;DHT22;5783;55.174;61.310;2022-12-11T02:05:06;13.80;47.00
11454;DHT22;5783;55.174;61.310;2022-12-11T02:10:08;13.80;46.70
11454;DHT22;5783;55.174;61.310;2022-12-11T02:27:45;13.90;46.70
11454;DHT22;5783;55.174;61.310;2022-12-11T02:30:16;13.90;46.60
11454;DHT22;5783;55.174;61.310;2022-12-11T02:32:50;13.90;46.70
11454;DHT22;5783;55.174;61.310;2022-12-11T02:35:38;13.90;46.80
11454;DHT22;5783;55.174;61.310;2022-12-11T02:40:58;14.10;47.00
11454;DHT22;5783;55.174;61.310;2022-12-11T02:43:30;14.10;47.40
11454;DHT22;5783;55.174;61.310;2022-12-11T02:46:02;14.10;47.50
11454;DHT22;5783;55.174;61.310;2022-12-11T02:48:32;14.20;48.00
11454;DHT22;5783;55.174;61.310;2022-12-11T02:51:02;14.20;48.00
11454;DHT22;5783;55.174;61.310;2022-12-11T02:53:36;14.30;48.60
11454;DHT22;5783;55.174;61.310;2022-12-11T02:56:26;14.30;48.60
11454;DHT22;5783;55.174;61.310;2022-12-11T02:58:58;14.30;48.60
11454;DHT22;5783;55.174;61.310;2022-12-11T03:01:27;14.40;49.00
11454;DHT22;5783;55.174;61.310;2022-12-11T03:03:57;14.40;49.70
11454;DHT22;5783;55.174;61.310;2022-12-11T03:06:31;14.50;50.30
11454;DHT22;5783;55.174;61.310;2022-12-11T03:08:59;14.60;53.10
11454;DHT22;5783;55.174;61.310;2022-12-11T03:11:28;14.60;54.50
11454;DHT22;5783;55.174;61.310;2022-12-11T03:13:57;14.60;54.70
11454;DHT22;5783;55.174;61.310;2022-12-11T03:22:50;14.80;51.80
11454;DHT22;5783;55.174;61.310;2022-12-11T03:28:30;15.00;49.40
11454;DHT22;5783;55.174;61.310;2022-12-11T03:31:02;15.00;49.00
11454;DHT22;5783;55.174;61.310;2022-12-11T03:33:34;15.00;48.90
11454;DHT22;5783;55.174;61.310;2022-12-11T03:42:05;15.00;48.40
11454;DHT22;5783;55.174;61.310;2022-12-11T03:44:35;14.90;48.40
11454;DHT22;5783;55.174;61.310;2022-12-11T03:47:06;14.90;48.40
11454;DHT22;5783;55.174;61.310;2022-12-11T03:49:38;14.80;48.50
11454;DHT22;5783;55.174;61.310;2022-12-11T03:52:10;14.90;48.50
11454;DHT22;5783;55.174;61.310;2022-12-11T03:54:41;14.90;48.20
11454;DHT22;5783;55.174;61.310;2022-12-11T03:57:13;14.80;48.30
11454;DHT22;5783;55.174;61.310;2022-12-11T03:59:43;14.80;48.20
11454;DHT22;5783;55.174;61.310;2022-12-11T04:02:12;14.80;48.50
11454;DHT22;5783;55.174;61.310;2022-12-11T04:04:42;14.80;48.20
11454;DHT22;5783;55.174;61.310;2022-12-11T04:07:11;14.80;48.50
11454;DHT22;5783;55.174;61.310;2022-12-11T04:09:40;14.80;48.70
11454;DHT22;5783;55.174;61.310;2022-12-11T04:12:09;14.70;48.60
11454;DHT22;5783;55.174;61.310;2022-12-11T04:14:39;14.70;48.70
11454;DHT22;5783;55.174;61.310;2022-12-11T04:20:20;14.90;48.80
11454;DHT22;5783;55.174;61.310;2022-12-11T04:23:28;15.00;48.60
11454;DHT22;5783;55.174;61.310;2022-12-11T04:26:19;15.00;48.80
11454;DHT22;5783;55.174;61.310;2022-12-11T04:28:48;15.10;49.20
11454;DHT22;5783;55.174;61.310;2022-12-11T04:31:20;15.20;49.60
11454;DHT22;5783;55.174;61.310;2022-12-11T04:33:49;15.50;48.50
11454;DHT22;5783;55.174;61.310;2022-12-11T04:36:20;15.80;50.00
11454;DHT22;5783;55.174;61.310;2022-12-11T04:38:49;16.00;55.70
11454;DHT22;5783;55.174;61.310;2022-12-11T04:46:18;16.80;39.20
11454;DHT22;5783;55.174;61.310;2022-12-11T04:48:48;17.00;36.40
11454;DHT22;5783;55.174;61.310;2022-12-11T04:51:18;17.00;40.10
11454;DHT22;5783;55.174;61.310;2022-12-11T04:53:47;17.10;46.40
11454;DHT22;5783;55.174;61.310;2022-12-11T04:56:16;17.10;42.90
11454;DHT22;5783;55.174;61.310;2022-12-11T05:01:34;16.90;50.30
11454;DHT22;5783;55.174;61.310;2022-12-11T05:04:03;17.30;50.50
11454;DHT22;5783;55.174;61.310;2022-12-11T05:06:32;17.30;51.50
11454;DHT22;5783;55.174;61.310;2022-12-11T05:09:02;17.20;52.30
11454;DHT22;5783;55.174;61.310;2022-12-11T05:11:31;17.20;51.50
11454;DHT22;5783;55.174;61.310;2022-12-11T05:14:00;17.20;50.70
11454;DHT22;5783;55.174;61.310;2022-12-11T05:16:29;17.10;50.40
11454;DHT22;5783;55.174;61.310;2022-12-11T05:18:58;17.10;50.40
11454;DHT22;5783;55.174;61.310;2022-12-11T05:21:27;17.10;50.20
11454;DHT22;5783;55.174;61.310;2022-12-11T05:23:56;17.10;50.40
11454;DHT22;5783;55.174;61.310;2022-12-11T05:26:26;17.00;50.00
11454;DHT22;5783;55.174;61.310;2022-12-11T05:28:55;17.00;49.60
11454;DHT22;5783;55.174;61.310;2022-12-11T05:31:26;17.00;49.60
11454;DHT22;5783;55.174;61.310;2022-12-11T05:33:55;16.90;48.90
11454;DHT22;5783;55.174;61.310;2022-12-11T05:36:26;16.80;47.70
11454;DHT22;5783;55.174;61.310;2022-12-11T05:38:57;16.70;47.00
11454;DHT22;5783;55.174;61.310;2022-12-11T05:41:29;16.70;46.80
11454;DHT22;5783;55.174;61.310;2022-12-11T05:43:58;16.70;46.70
11454;DHT22;5783;55.174;61.310;2022-12-11T05:46:29;16.70;46.60
11454;DHT22;5783;55.174;61.310;2022-12-11T05:49:00;16.80;45.90
11454;DHT22;5783;55.174;61.310;2022-12-11T05:51:30;16.70;45.70
11454;DHT22;5783;55.174;61.310;2022-12-11T05:54:19;16.70;45.60
11454;DHT22;5783;55.174;61.310;2022-12-11T05:56:49;16.80;45.20
11454;DHT22;5783;55.174;61.310;2022-12-11T05:59:19;16.70;45.20
11454;DHT22;5783;55.174;61.310;2022-12-11T06:01:48;16.70;45.20
11454;DHT22;5783;55.174;61.310;2022-12-11T06:04:19;16.70;45.70
11454;DHT22;5783;55.174;61.310;2022-12-11T06:06:48;16.80;45.70
11454;DHT22;5783;55.174;61.310;2022-12-11T06:09:17;16.90;46.30
11454;DHT22;5783;55.174;61.310;2022-12-11T06:11:46;16.90;48.90
11454;DHT22;5783;55.174;61.310;2022-12-11T06:14:15;16.70;48.10
11454;DHT22;5783;55.174;61.310;2022-12-11T06:16:44;16.60;28.80
11454;DHT22;5783;55.174;61.310;2022-12-11T06:19:14;16.50;28.10
11454;DHT22;5783;55.174;61.310;2022-12-11T06:21:45;16.50;27.90
11454;DHT22;5783;55.174;61.310;2022-12-11T06:24:14;16.40;31.80
11454;DHT22;5783;55.174;61.310;2022-12-11T06:26:43;16.50;31.40
11454;DHT22;5783;55.174;61.310;2022-12-11T06:29:12;16.50;32.00
11454;DHT22;5783;55.174;61.310;2022-12-11T06:31:41;16.50;39.10
11454;DHT22;5783;55.174;61.310;2022-12-11T06:34:13;16.50;39.20
11454;DHT22;5783;55.174;61.310;2022-12-11T06:36:42;16.50;39.00
11454;DHT22;5783;55.174;61.310;2022-12-11T06:39:11;16.30;37.20
11454;DHT22;5783;55.174;61.310;2022-12-11T06:41:40;16.30;28.80
11454;DHT22;5783;55.174;61.310;2022-12-11T06:44:09;16.30;29.20
11454;DHT22;5783;55.174;61.310;2022-12-11T06:46:38;16.10;31.40
11454;DHT22;5783;55.174;61.310;2022-12-11T06:49:07;16.10;37.60
11454;DHT22;5783;55.174;61.310;2022-12-11T06:51:36;16.10;38.60
11454;DHT22;5783;55.174;61.310;2022-12-11T06:54:05;16.10;40.90
11454;DHT22;5783;55.174;61.310;2022-12-11T06:56:34;16.00;45.00
11454;DHT22;5783;55.174;61.310;2022-12-11T06:59:03;16.00;45.70
11454;DHT22;5783;55.174;61.310;2022-12-11T07:01:33;16.00;45.50
11454;DHT22;5783;55.174;61.310;2022-12-11T07:04:02;16.00;42.10
11454;DHT22;5783;55.174;61.310;2022-12-11T07:06:31;15.90;39.40
11454;DHT22;5783;55.174;61.310;2022-12-11T07:11:51;15.80;38.30
11454;DHT22;5783;55.174;61.310;2022-12-11T07:14:20;15.80;39.50
11454;DHT22;5783;55.174;61.310;2022-12-11T07:16:49;15.90;37.10
11454;DHT22;5783;55.174;61.310;2022-12-11T07:19:19;16.00;34.80
11454;DHT22;5783;55.174;61.310;2022-12-11T07:21:48;16.00;35.60
11454;DHT22;5783;55.174;61.310;2022-12-11T07:24:17;16.10;34.70
11454;DHT22;5783;55.174;61.310;2022-12-11T07:26:47;16.30;34.10
11454;DHT22;5783;55.174;61.310;2022-12-11T07:29:16;16.30;34.10
11454;DHT22;5783;55.174;61.310;2022-12-11T07:31:45;16.20;33.70
11454;DHT22;5783;55.174;61.310;2022-12-11T07:34:16;16.20;33.70
11454;DHT22;5783;55.174;61.310;2022-12-11T07:36:45;16.10;32.00
11454;DHT22;5783;55.174;61.310;2022-12-11T07:39:14;16.10;32.40
11454;DHT22;5783;55.174;61.310;2022-12-11T07:41:44;15.90;33.10
11454;DHT22;5783;55.174;61.310;2022-12-11T07:44:13;16.00;31.30
11454;DHT22;5783;55.174;61.310;2022-12-11T07:46:42;15.90;32.90
11454;DHT22;5783;55.174;61.310;2022-12-11T07:49:11;15.90;31.90
11454;DHT22;5783;55.174;61.310;2022-12-11T07:51:41;16.00;32.50
11454;DHT22;5783;55.174;61.310;2022-12-11T07:54:12;16.20;31.60
11454;DHT22;5783;55.174;61.310;2022-12-11T07:56:43;16.00;32.40
11454;DHT22;5783;55.174;61.310;2022-12-11T07:59:14;16.00;32.90
11454;DHT22;5783;55.174;61.310;2022-12-11T08:01:43;15.90;32.50
11454;DHT22;5783;55.174;61.310;2022-12-11T08:04:12;15.80;32.00
11454;DHT22;5783;55.174;61.310;2022-12-11T08:06:42;15.70;32.10
11454;DHT22;5783;55.174;61.310;2022-12-11T08:09:12;15.60;32.30
11454;DHT22;5783;55.174;61.310;2022-12-11T08:11:41;15.70;39.80
11454;DHT22;5783;55.174;61.310;2022-12-11T08:14:10;15.60;40.70
11454;DHT22;5783;55.174;61.310;2022-12-11T08:16:39;15.70;42.30
11454;DHT22;5783;55.174;61.310;2022-12-11T08:19:29;15.70;44.10
11454;DHT22;5783;55.174;61.310;2022-12-11T08:24:48;15.60;37.30
11454;DHT22;5783;55.174;61.310;2022-12-11T08:27:17;15.50;37.40
11454;DHT22;5783;55.174;61.310;2022-12-11T08:29:46;15.50;36.50
11454;DHT22;5783;55.174;61.310;2022-12-11T08:32:15;15.60;37.20
11454;DHT22;5783;55.174;61.310;2022-12-11T08:34:44;15.50;36.90
11454;DHT22;5783;55.174;61.310;2022-12-11T08:37:14;15.50;37.90
11454;DHT22;5783;55.174;61.310;2022-12-11T08:39:43;15.40;38.10
11454;DHT22;5783;55.174;61.310;2022-12-11T08:42:12;15.50;38.30
11454;DHT22;5783;55.174;61.310;2022-12-11T08:44:41;15.60;38.50
11454;DHT22;5783;55.174;61.310;2022-12-11T08:47:11;15.70;38.40
11454;DHT22;5783;55.174;61.310;2022-12-11T08:49:41;15.80;38.80
11454;DHT22;5783;55.174;61.310;2022-12-11T08:52:10;16.00;38.80
11454;DHT22;5783;55.174;61.310;2022-12-11T08:54:39;16.10;38.80
11454;DHT22;5783;55.174;61.310;2022-12-11T08:57:08;16.20;35.70
11454;DHT22;5783;55.174;61.310;2022-12-11T08:59:37;16.20;32.10
11454;DHT22;5783;55.174;61.310;2022-12-11T09:02:08;16.10;31.60
11454;DHT22;5783;55.174;61.310;2022-12-11T09:04:37;16.00;31.60
11454;DHT22;5783;55.174;61.310;2022-12-11T09:07:06;16.00;31.70
11454;DHT22;5783;55.174;61.310;2022-12-11T09:09:35;16.00;32.30
11454;DHT22;5783;55.174;61.310;2022-12-11T09:12:06;16.00;31.90
11454;DHT22;5783;55.174;61.310;2022-12-11T09:14:35;16.10;31.90
11454;DHT22;5783;55.174;61.310;2022-12-11T09:17:04;16.10;31.80
11454;DHT22;5783;55.174;61.310;2022-12-11T09:19:34;16.20;31.90
11454;DHT22;5783;55.174;61.310;2022-12-11T09:22:03;16.20;31.40
11454;DHT22;5783;55.174;61.310;2022-12-11T09:24:32;16.20;31.30
11454;DHT22;5783;55.174;61.310;2022-12-11T09:27:02;16.20;31.40
11454;DHT22;5783;55.174;61.310;2022-12-11T09:29:32;16.20;30.80
11454;DHT22;5783;55.174;61.310;2022-12-11T09:32:01;16.20;31.40
11454;DHT22;5783;55.174;61.310;2022-12-11T09:34:30;16.10;30.90
11454;DHT22;5783;55.174;61.310;2022-12-11T09:36:59;16.10;30.40
11454;DHT22;5783;55.174;61.310;2022-12-11T09:39:29;16.10;30.70
11454;DHT22;5783;55.174;61.310;2022-12-11T09:45:09;16.20;30.30
11454;DHT22;5783;55.174;61.310;2022-12-11T09:50:32;16.10;30.40
11454;DHT22;5783;55.174;61.310;2022-12-11T09:53:24;16.20;30.40
11454;DHT22;5783;55.174;61.310;2022-12-11T10:19:45;16.30;30.60
11454;DHT22;5783;55.174;61.310;2022-12-11T10:22:34;16.30;30.80
11454;DHT22;5783;55.174;61.310;2022-12-11T10:28:13;16.60;34.50
11454;DHT22;5783;55.174;61.310;2022-12-11T10:36:41;16.90;40.30
11454;DHT22;5783;55.174;61.310;2022-12-11T10:39:30;16.90;40.10
11454;DHT22;5783;55.174;61.310;2022-12-11T10:42:01;16.90;39.80
11454;DHT22;5783;55.174;61.310;2022-12-11T10:44:32;16.80;39.20
11454;DHT22;5783;55.174;61.310;2022-12-11T10:47:04;16.70;38.60
11454;DHT22;5783;55.174;61.310;2022-12-11T10:49:36;16.70;39.30
11454;DHT22;5783;55.174;61.310;2022-12-11T10:52:26;16.60;39.90
11454;DHT22;5783;55.174;61.310;2022-12-11T10:57:45;16.60;39.70
11454;DHT22;5783;55.174;61.310;2022-12-11T11:00:36;16.60;39.70
11454;DHT22;5783;55.174;61.310;2022-12-11T11:09:25;16.60;39.60
11454;DHT22;5783;55.174;61.310;2022-12-11T11:11:37;16.60;39.40
11454;DHT22;5783;55.174;61.310;2022-12-11T11:14:28;16.60;39.20
11454;DHT22;5783;55.174;61.310;2022-12-11T11:16:57;16.70;39.30
11454;DHT22;5783;55.174;61.310;2022-12-11T11:19:47;16.60;39.10
11454;DHT22;5783;55.174;61.310;2022-12-11T11:22:18;16.50;39.30
11454;DHT22;5783;55.174;61.310;2022-12-11T11:25:14;16.50;39.60
11454;DHT22;5783;55.174;61.310;2022-12-11T11:36:30;16.30;36.00
11454;DHT22;5783;55.174;61.310;2022-12-11T11:42:36;16.40;37.50
11454;DHT22;5783;55.174;61.310;2022-12-11T11:45:03;16.50;37.30
11454;DHT22;5783;55.174;61.310;2022-12-11T11:50:43;16.50;37.60
11454;DHT22;5783;55.174;61.310;2022-12-11T11:53:34;16.50;37.60
11454;DHT22;5783;55.174;61.310;2022-12-11T11:56:26;16.50;37.60
11454;DHT22;5783;55.174;61.310;2022-12-11T12:01:47;16.50;38.00
11454;DHT22;5783;55.174;61.310;2022-12-11T12:10:40;16.50;39.20
11454;DHT22;5783;55.174;61.310;2022-12-11T12:40:50;16.40;39.70
11454;DHT22;5783;55.174;61.310;2022-12-11T12:48:39;16.40;41.20
11454;DHT22;5783;55.174;61.310;2022-12-11T12:51:12;16.30;40.90
11454;DHT22;5783;55.174;61.310;2022-12-11T12:53:44;16.30;40.60
11454;DHT22;5783;55.174;61.310;2022-12-11T12:56:13;16.20;39.80
11454;DHT22;5783;55.174;61.310;2022-12-11T12:58:44;16.10;33.60
11454;DHT22;5783;55.174;61.310;2022-12-11T13:01:33;16.00;32.80
11454;DHT22;5783;55.174;61.310;2022-12-11T13:16:22;16.10;39.00
11454;DHT22;5783;55.174;61.310;2022-12-11T13:18:52;16.10;39.10
11454;DHT22;5783;55.174;61.310;2022-12-11T13:21:40;16.10;38.60
11454;DHT22;5783;55.174;61.310;2022-12-11T13:24:30;16.00;38.20
11454;DHT22;5783;55.174;61.310;2022-12-11T13:27:38;16.00;38.80
11454;DHT22;5783;55.174;61.310;2022-12-11T13:30:28;16.00;38.20
11454;DHT22;5783;55.174;61.310;2022-12-11T13:35:31;15.90;36.20
11454;DHT22;5783;55.174;61.310;2022-12-11T13:40:53;15.90;36.70
11454;DHT22;5783;55.174;61.310;2022-12-11T13:46:13;15.90;37.00
11454;DHT22;5783;55.174;61.310;2022-12-11T13:48:46;15.80;37.00
11454;DHT22;5783;55.174;61.310;2022-12-11T13:51:18;15.80;37.00
11454;DHT22;5783;55.174;61.310;2022-12-11T13:53:47;15.70;37.10
11454;DHT22;5783;55.174;61.310;2022-12-11T13:56:19;15.60;37.20
11454;DHT22;5783;55.174;61.310;2022-12-11T13:58:48;15.50;38.00
11454;DHT22;5783;55.174;61.310;2022-12-11T14:04:10;15.40;37.70
11454;DHT22;5783;55.174;61.310;2022-12-11T14:06:40;15.30;36.90
11454;DHT22;5783;55.174;61.310;2022-12-11T14:09:28;15.10;40.60
11454;DHT22;5783;55.174;61.310;2022-12-11T14:12:00;15.10;41.50
11454;DHT22;5783;55.174;61.310;2022-12-11T14:14:50;15.10;38.90
11454;DHT22;5783;55.174;61.310;2022-12-11T14:17:40;15.10;38.70
11454;DHT22;5783;55.174;61.310;2022-12-11T14:20:31;15.00;40.10
11454;DHT22;5783;55.174;61.310;2022-12-11T14:23:20;15.10;39.60
11454;DHT22;5783;55.174;61.310;2022-12-11T14:28:42;15.10;40.00
11454;DHT22;5783;55.174;61.310;2022-12-11T14:31:14;15.00;40.50
11454;DHT22;5783;55.174;61.310;2022-12-11T14:36:16;15.10;41.10
11454;DHT22;5783;55.174;61.310;2022-12-11T14:39:06;15.20;40.60
11454;DHT22;5783;55.174;61.310;2022-12-11T14:41:57;15.20;40.70
11454;DHT22;5783;55.174;61.310;2022-12-11T14:44:27;15.20;39.60
11454;DHT22;5783;55.174;61.310;2022-12-11T14:55:46;15.10;40.80
11454;DHT22;5783;55.174;61.310;2022-12-11T14:58:18;14.90;43.30
11454;DHT22;5783;55.174;61.310;2022-12-11T15:01:43;14.70;45.60
11454;DHT22;5783;55.174;61.310;2022-12-11T15:03:40;14.50;45.00
11454;DHT22;5783;55.174;61.310;2022-12-11T15:06:30;15.20;45.80
11454;DHT22;5783;55.174;61.310;2022-12-11T15:12:11;14.20;50.40
11454;DHT22;5783;55.174;61.310;2022-12-11T15:15:02;14.20;51.30
11454;DHT22;5783;55.174;61.310;2022-12-11T15:17:51;14.10;51.40
11454;DHT22;5783;55.174;61.310;2022-12-11T15:20:40;13.90;53.60
11454;DHT22;5783;55.174;61.310;2022-12-11T15:23:09;13.80;57.20
11454;DHT22;5783;55.174;61.310;2022-12-11T15:25:38;13.80;53.90
11454;DHT22;5783;55.174;61.310;2022-12-11T15:33:28;13.60;72.30
11454;DHT22;5783;55.174;61.310;2022-12-11T15:38:47;13.40;62.50
11454;DHT22;5783;55.174;61.310;2022-12-11T15:41:17;13.40;63.50
11454;DHT22;5783;55.174;61.310;2022-12-11T15:43:50;13.30;64.60
11454;DHT22;5783;55.174;61.310;2022-12-11T15:46:20;13.40;64.60
11454;DHT22;5783;55.174;61.310;2022-12-11T15:48:49;13.40;64.10
11454;DHT22;5783;55.174;61.310;2022-12-11T15:51:18;13.40;64.00
11454;DHT22;5783;55.174;61.310;2022-12-11T15:53:48;13.40;65.30
11454;DHT22;5783;55.174;61.310;2022-12-11T15:56:18;13.40;65.00
11454;DHT22;5783;55.174;61.310;2022-12-11T15:59:06;13.40;63.40
11454;DHT22;5783;55.174;61.310;2022-12-11T16:01:35;13.50;59.70
11454;DHT22;5783;55.174;61.310;2022-12-11T16:04:04;13.40;59.80
11454;DHT22;5783;55.174;61.310;2022-12-11T16:06:34;13.30;60.70
11454;DHT22;5783;55.174;61.310;2022-12-11T16:09:03;13.30;47.30
11454;DHT22;5783;55.174;61.310;2022-12-11T16:11:32;13.30;47.50
11454;DHT22;5783;55.174;61.310;2022-12-11T16:14:02;13.30;47.40
11454;DHT22;5783;55.174;61.310;2022-12-11T16:16:31;13.30;47.40
11454;DHT22;5783;55.174;61.310;2022-12-11T16:19:00;13.30;47.40
11454;DHT22;5783;55.174;61.310;2022-12-11T16:21:29;13.30;47.60
11454;DHT22;5783;55.174;61.310;2022-12-11T16:23:58;13.30;47.20
11454;DHT22;5783;55.174;61.310;2022-12-11T16:26:28;13.40;47.30
11454;DHT22;5783;55.174;61.310;2022-12-11T16:28:57;13.30;47.00
11454;DHT22;5783;55.174;61.310;2022-12-11T16:31:26;13.30;47.10
11454;DHT22;5783;55.174;61.310;2022-12-11T16:33:55;13.40;47.20
11454;DHT22;5783;55.174;61.310;2022-12-11T16:36:24;13.40;47.40
11454;DHT22;5783;55.174;61.310;2022-12-11T16:38:53;13.40;47.10
11454;DHT22;5783;55.174;61.310;2022-12-11T16:41:22;13.30;47.20
11454;DHT22;5783;55.174;61.310;2022-12-11T16:43:53;13.40;47.10
11454;DHT22;5783;55.174;61.310;2022-12-11T16:46:22;13.40;46.80
11454;DHT22;5783;55.174;61.310;2022-12-11T16:48:52;13.40;47.00
11454;DHT22;5783;55.174;61.310;2022-12-11T16:53:52;13.40;47.00
11454;DHT22;5783;55.174;61.310;2022-12-11T16:56:21;13.40;46.70
11454;DHT22;5783;55.174;61.310;2022-12-11T16:58:52;13.40;46.90
11454;DHT22;5783;55.174;61.310;2022-12-11T17:01:41;13.40;45.80
11454;DHT22;5783;55.174;61.310;2022-12-11T17:04:12;13.30;41.50
11454;DHT22;5783;55.174;61.310;2022-12-11T17:06:41;13.30;40.20
11454;DHT22;5783;55.174;61.310;2022-12-11T17:14:37;13.10;42.50
11454;DHT22;5783;55.174;61.310;2022-12-11T17:19:56;13.10;42.50
11454;DHT22;5783;55.174;61.310;2022-12-11T17:22:25;13.20;42.10
11454;DHT22;5783;55.174;61.310;2022-12-11T17:30:40;13.40;41.60
11454;DHT22;5783;55.174;61.310;2022-12-11T17:36:00;13.50;41.30
11454;DHT22;5783;55.174;61.310;2022-12-11T17:38:32;13.50;41.10
11454;DHT22;5783;55.174;61.310;2022-12-11T17:44:11;13.60;41.50
11454;DHT22;5783;55.174;61.310;2022-12-11T17:46:44;13.60;42.90
11454;DHT22;5783;55.174;61.310;2022-12-11T17:51:46;13.70;44.20
11454;DHT22;5783;55.174;61.310;2022-12-11T17:54:18;13.70;42.10
11454;DHT22;5783;55.174;61.310;2022-12-11T17:56:50;13.70;40.90
11454;DHT22;5783;55.174;61.310;2022-12-11T17:59:38;13.70;39.80
11454;DHT22;5783;55.174;61.310;2022-12-11T18:02:31;13.70;39.90
11454;DHT22;5783;55.174;61.310;2022-12-11T18:05:03;13.80;41.60
11454;DHT22;5783;55.174;61.310;2022-12-11T18:07:35;13.80;41.70
11454;DHT22;5783;55.174;61.310;2022-12-11T18:10:08;13.90;46.60
11454;DHT22;5783;55.174;61.310;2022-12-11T18:19:00;14.00;33.00
11454;DHT22;5783;55.174;61.310;2022-12-11T18:21:32;14.00;32.70
11454;DHT22;5783;55.174;61.310;2022-12-11T18:24:02;14.00;32.80
11454;DHT22;5783;55.174;61.310;2022-12-11T18:29:06;14.00;33.60
11454;DHT22;5783;55.174;61.310;2022-12-11T18:31:54;14.10;32.60
11454;DHT22;5783;55.174;61.310;2022-12-11T18:34:23;14.00;32.10
11454;DHT22;5783;55.174;61.310;2022-12-11T18:36:55;14.00;32.10
11454;DHT22;5783;55.174;61.310;2022-12-11T18:39:28;14.00;31.80
11454;DHT22;5783;55.174;61.310;2022-12-11T18:42:00;14.00;32.30
11454;DHT22;5783;55.174;61.310;2022-12-11T18:44:49;13.90;32.10
11454;DHT22;5783;55.174;61.310;2022-12-11T18:52:38;14.00;32.00
11454;DHT22;5783;55.174;61.310;2022-12-11T18:55:10;14.00;31.70
11454;DHT22;5783;55.174;61.310;2022-12-11T19:00:10;14.00;32.00
11454;DHT22;5783;55.174;61.310;2022-12-11T19:05:17;14.00;31.60
11454;DHT22;5783;55.174;61.310;2022-12-11T19:07:55;14.00;32.20
11454;DHT22;5783;55.174;61.310;2022-12-11T19:10:24;14.00;32.10
11454;DHT22;5783;55.174;61.310;2022-12-11T19:16:23;14.00;32.10
11454;DHT22;5783;55.174;61.310;2022-12-11T19:22:04;14.10;32.20
11454;DHT22;5783;55.174;61.310;2022-12-11T19:27:46;14.10;32.20
11454;DHT22;5783;55.174;61.310;2022-12-11T19:30:19;14.10;30.90
11454;DHT22;5783;55.174;61.310;2022-12-11T19:33:11;14.10;29.50
11454;DHT22;5783;55.174;61.310;2022-12-11T19:35:42;14.10;28.20
11454;DHT22;5783;55.174;61.310;2022-12-11T19:38:14;14.20;28.00
11454;DHT22;5783;55.174;61.310;2022-12-11T19:41:23;14.20;27.80
11454;DHT22;5783;55.174;61.310;2022-12-11T19:46:44;14.20;28.00
11454;DHT22;5783;55.174;61.310;2022-12-11T19:49:13;14.30;28.10
11454;DHT22;5783;55.174;61.310;2022-12-11T19:51:47;14.30;27.90
11454;DHT22;5783;55.174;61.310;2022-12-11T19:54:35;14.30;27.90
11454;DHT22;5783;55.174;61.310;2022-12-11T20:02:48;14.30;27.80
11454;DHT22;5783;55.174;61.310;2022-12-11T20:05:18;14.30;27.60
11454;DHT22;5783;55.174;61.310;2022-12-11T20:10:18;14.30;27.60
11454;DHT22;5783;55.174;61.310;2022-12-11T20:12:47;14.30;27.60
11454;DHT22;5783;55.174;61.310;2022-12-11T20:15:37;14.30;27.60
11454;DHT22;5783;55.174;61.310;2022-12-11T20:18:12;14.30;27.60
11454;DHT22;5783;55.174;61.310;2022-12-11T20:23:49;14.30;27.50
11454;DHT22;5783;55.174;61.310;2022-12-11T20:26:21;14.20;27.60
11454;DHT22;5783;55.174;61.310;2022-12-11T20:28:51;14.20;27.50
11454;DHT22;5783;55.174;61.310;2022-12-11T20:31:22;14.20;28.00
11454;DHT22;5783;55.174;61.310;2022-12-11T20:33:54;14.20;28.00
11454;DHT22;5783;55.174;61.310;2022-12-11T20:36:24;14.20;27.50
11454;DHT22;5783;55.174;61.310;2022-12-11T20:38:53;14.10;28.00
11454;DHT22;5783;55.174;61.310;2022-12-11T20:41:24;14.20;28.10
11454;DHT22;5783;55.174;61.310;2022-12-11T20:43:53;14.20;28.10